createdAt,value
2023-03-20T00:00:59.524Z,13.20
2023-03-20T00:03:28.250Z,14.27
2023-03-20T00:05:56.148Z,13.73
2023-03-20T00:08:24.028Z,17.27
2023-03-20T00:10:52.012Z,15.23
2023-03-20T00:13:26.109Z,18.13
2023-03-20T00:15:55.913Z,14.80
2023-03-20T00:18:24.976Z,14.50
2023-03-20T00:20:53.714Z,13.33
2023-03-20T00:23:21.843Z,16.97
2023-03-20T00:25:49.789Z,16.30
2023-03-20T00:28:40.930Z,14.90
2023-03-20T00:31:20.178Z,19.27
2023-03-20T00:33:48.424Z,14.90
2023-03-20T00:36:16.283Z,14.73
2023-03-20T00:38:44.336Z,15.57
2023-03-20T00:41:24.442Z,14.30
2023-03-20T00:43:54.796Z,15.73
2023-03-20T00:46:24.880Z,14.50
2023-03-20T00:48:53.456Z,14.70
2023-03-20T00:51:21.440Z,15.80
2023-03-20T00:53:49.299Z,14.73
2023-03-20T00:56:33.243Z,16.00
2023-03-20T00:59:02.737Z,14.17
2023-03-20T01:01:32.571Z,16.00
2023-03-20T01:04:01.902Z,15.93
2023-03-20T01:06:31.428Z,12.70
2023-03-20T01:09:00.197Z,12.37
2023-03-20T01:11:28.749Z,13.30
2023-03-20T01:13:57.332Z,14.80
2023-03-20T01:16:27.204Z,15.93
2023-03-20T01:18:56.886Z,16.40
2023-03-20T01:21:25.068Z,14.60
2023-03-20T01:23:52.974Z,13.73
2023-03-20T01:26:25.238Z,16.27
2023-03-20T01:28:53.119Z,15.83
2023-03-20T01:31:21.020Z,16.33
2023-03-20T01:33:49.085Z,15.37
2023-03-20T01:36:22.247Z,15.20
2023-03-20T01:38:56.534Z,15.00
2023-03-20T01:41:25.778Z,16.77
2023-03-20T01:43:54.369Z,16.30
2023-03-20T01:46:25.886Z,15.27
2023-03-20T01:49:09.105Z,16.97
2023-03-20T01:51:38.382Z,15.90
2023-03-20T01:54:10.406Z,14.17
2023-03-20T01:56:42.378Z,14.13
2023-03-20T01:59:13.753Z,15.90
2023-03-20T02:01:43.334Z,12.43
2023-03-20T02:04:13.043Z,14.07
2023-03-20T02:06:45.047Z,15.30
2023-03-20T02:09:13.365Z,15.13
2023-03-20T02:11:42.814Z,20.43
2023-03-20T02:14:11.573Z,15.70
2023-03-20T02:16:39.594Z,17.37
2023-03-20T02:19:15.655Z,18.60
2023-03-20T02:22:31.298Z,17.70
2023-03-20T02:25:37.838Z,15.43
2023-03-20T02:28:39.962Z,15.70
2023-03-20T02:31:32.755Z,12.37
2023-03-20T02:34:38.673Z,14.37
2023-03-20T02:37:49.940Z,15.03
2023-03-20T02:40:26.267Z,17.93
2023-03-20T02:43:00.372Z,16.83
2023-03-20T02:45:30.652Z,15.53
2023-03-20T02:48:11.725Z,15.47
2023-03-20T02:50:49.665Z,13.97
2023-03-20T02:53:29.327Z,10.83
2023-03-20T02:56:04.332Z,15.90
2023-03-20T02:58:39.832Z,12.67
2023-03-20T03:01:15.024Z,15.03
2023-03-20T03:03:48.733Z,16.17
2023-03-20T03:06:23.032Z,13.17
2023-03-20T03:09:00.131Z,14.47
2023-03-20T03:11:28.124Z,15.57
2023-03-20T03:13:58.074Z,12.33
2023-03-20T03:16:30.231Z,14.57
2023-03-20T03:19:07.133Z,13.63
2023-03-20T03:21:37.356Z,16.03
2023-03-20T03:24:07.781Z,14.07
2023-03-20T03:26:39.161Z,17.43
2023-03-20T03:29:13.518Z,16.97
2023-03-20T03:31:42.618Z,16.07
2023-03-20T03:34:14.892Z,17.23
2023-03-20T03:36:52.736Z,13.73
2023-03-20T03:39:28.500Z,14.67
2023-03-20T03:42:02.943Z,15.43
2023-03-20T03:44:36.583Z,16.87
2023-03-20T03:47:08.822Z,14.17
2023-03-20T03:49:40.883Z,13.87
2023-03-20T03:52:13.037Z,14.80
2023-03-20T03:54:46.599Z,14.83
2023-03-20T03:57:17.950Z,13.10
2023-03-20T03:59:49.022Z,19.93
2023-03-20T04:02:19.764Z,13.27
2023-03-20T04:04:51.845Z,14.90
2023-03-20T04:07:19.949Z,12.17
2023-03-20T04:09:49.284Z,18.23
2023-03-20T04:12:38.187Z,12.90
2023-03-20T04:15:07.276Z,14.70
2023-03-20T04:17:35.936Z,17.20
2023-03-20T04:20:06.967Z,16.30
2023-03-20T04:22:35.154Z,17.87
2023-03-20T04:25:06.952Z,15.40
2023-03-20T04:27:34.929Z,19.00
2023-03-20T04:30:02.964Z,17.40
2023-03-20T04:32:31.046Z,18.00
2023-03-20T04:34:59.051Z,19.83
2023-03-20T04:37:26.927Z,16.47
2023-03-20T04:39:54.821Z,13.83
2023-03-20T04:42:24.060Z,12.43
2023-03-20T04:44:52.000Z,16.20
2023-03-20T04:47:19.902Z,10.87
2023-03-20T04:49:47.821Z,14.37
2023-03-20T04:52:15.834Z,13.93
2023-03-20T04:54:43.751Z,13.63
2023-03-20T04:57:11.636Z,14.90
2023-03-20T04:59:41.009Z,16.17
2023-03-20T05:02:08.918Z,11.97
2023-03-20T05:04:36.879Z,15.93
2023-03-20T05:07:04.790Z,11.03
2023-03-20T05:09:32.659Z,15.47
2023-03-20T05:12:00.518Z,14.43
2023-03-20T05:14:28.452Z,14.00
2023-03-20T05:16:57.819Z,14.07
2023-03-20T05:19:25.796Z,12.63
2023-03-20T05:21:53.687Z,15.07
2023-03-20T05:24:22.189Z,14.30
2023-03-20T05:26:50.105Z,15.77
2023-03-20T05:29:18.012Z,17.03
2023-03-20T05:31:45.967Z,19.43
2023-03-20T05:34:15.230Z,14.60
2023-03-20T05:36:43.149Z,13.50
2023-03-20T05:39:11.693Z,13.83
2023-03-20T05:41:39.668Z,12.80
2023-03-20T05:44:07.652Z,15.37
2023-03-20T05:46:35.562Z,15.37
2023-03-20T05:49:03.595Z,13.40
2023-03-20T05:51:32.858Z,14.17
2023-03-20T05:54:00.802Z,14.93
2023-03-20T05:56:28.754Z,11.77
2023-03-20T05:58:56.618Z,21.17
2023-03-20T06:01:24.510Z,16.63
2023-03-20T06:03:52.386Z,17.63
2023-03-20T06:06:20.518Z,14.60
2023-03-20T06:08:49.834Z,11.87
2023-03-20T06:11:17.804Z,14.50
2023-03-20T06:13:45.744Z,16.27
2023-03-20T06:16:13.678Z,13.57
2023-03-20T06:18:41.633Z,17.10
2023-03-20T06:21:09.613Z,12.83
2023-03-20T06:23:37.489Z,18.53
2023-03-20T06:26:07.275Z,13.17
2023-03-20T06:28:35.328Z,16.53
2023-03-20T06:31:03.346Z,15.23
2023-03-20T06:33:31.453Z,16.63
2023-03-20T06:35:59.407Z,15.67
2023-03-20T06:38:27.375Z,14.90
2023-03-20T06:40:55.273Z,13.33
2023-03-20T06:43:24.605Z,15.23
2023-03-20T06:45:52.694Z,14.50
2023-03-20T06:48:22.076Z,16.87
2023-03-20T06:50:50.327Z,14.40
2023-03-20T06:53:18.532Z,12.43
2023-03-20T06:55:48.303Z,13.10
2023-03-20T06:58:16.771Z,14.23
2023-03-20T07:00:46.689Z,17.10
2023-03-20T07:03:15.829Z,10.50
2023-03-20T07:05:44.876Z,13.27
2023-03-20T07:08:13.118Z,12.40
2023-03-20T07:10:40.967Z,13.30
2023-03-20T07:13:09.346Z,16.93
2023-03-20T07:15:38.456Z,12.73
2023-03-20T07:18:08.514Z,17.07
2023-03-20T07:20:36.450Z,17.50
2023-03-20T07:23:04.337Z,18.67
2023-03-20T07:25:42.148Z,15.00
2023-03-20T07:28:10.668Z,16.37
2023-03-20T07:30:38.642Z,19.07
2023-03-20T07:33:07.963Z,16.80
2023-03-20T07:35:36.557Z,15.73
2023-03-20T07:38:04.690Z,15.43
2023-03-20T07:40:33.087Z,14.27
2023-03-20T07:43:01.277Z,18.57
2023-03-20T07:45:29.404Z,16.33
2023-03-20T07:47:57.602Z,19.00
2023-03-20T07:50:26.940Z,19.40
2023-03-20T07:52:54.827Z,11.83
2023-03-20T07:55:22.712Z,22.77
2023-03-20T07:57:51.095Z,20.07
2023-03-20T08:00:20.347Z,10.80
2023-03-20T08:02:49.818Z,9.60
2023-03-20T08:05:18.609Z,13.00
2023-03-20T08:07:48.006Z,10.67
2023-03-20T08:10:16.646Z,13.40
2023-03-20T08:12:44.842Z,12.23
2023-03-20T08:15:13.157Z,10.60
2023-03-20T08:17:43.809Z,10.80
2023-03-20T08:20:13.166Z,9.80
2023-03-20T08:22:41.350Z,10.97
2023-03-20T08:25:11.936Z,11.67
2023-03-20T08:27:40.227Z,18.30
2023-03-20T08:30:10.034Z,12.67
2023-03-20T08:32:38.853Z,12.87
2023-03-20T08:35:16.326Z,11.20
2023-03-20T08:37:50.117Z,12.52
2023-03-20T08:40:19.792Z,10.00
2023-03-20T08:42:47.760Z,8.73
2023-03-20T08:45:17.039Z,10.15
2023-03-20T08:47:45.004Z,9.10
2023-03-20T08:50:13.361Z,8.38
2023-03-20T08:52:43.972Z,9.73
2023-03-20T08:55:12.435Z,10.23
2023-03-20T08:57:41.841Z,11.73
2023-03-20T09:00:12.872Z,9.85
2023-03-20T09:02:41.185Z,7.18
2023-03-20T09:05:09.929Z,7.20
2023-03-20T09:07:38.219Z,9.00
2023-03-20T09:10:07.164Z,10.10
2023-03-20T09:12:36.008Z,7.97
2023-03-20T09:15:06.892Z,9.77
2023-03-20T09:17:34.890Z,7.13
2023-03-20T09:20:02.889Z,10.25
2023-03-20T09:22:31.044Z,10.50
2023-03-20T09:24:58.982Z,10.70
2023-03-20T09:27:26.914Z,8.13
2023-03-20T09:29:54.844Z,9.10
2023-03-20T09:32:24.094Z,12.07
2023-03-20T09:34:52.101Z,10.55
2023-03-20T09:37:20.197Z,11.63
2023-03-20T09:39:48.286Z,9.82
2023-03-20T09:42:30.081Z,9.80
2023-03-20T09:45:06.707Z,8.90
2023-03-20T09:47:42.047Z,8.77
2023-03-20T09:50:24.165Z,8.50
2023-03-20T09:52:59.276Z,9.95
2023-03-20T09:55:35.275Z,11.63
2023-03-20T09:58:13.429Z,10.23
2023-03-20T10:00:45.997Z,10.18
2023-03-20T10:03:20.980Z,15.05
2023-03-20T10:05:55.552Z,10.27
2023-03-20T10:08:29.339Z,9.93
2023-03-20T10:11:07.751Z,10.25
2023-03-20T10:13:56.778Z,10.27
2023-03-20T10:16:39.160Z,12.25
2023-03-20T10:19:19.186Z,9.13
2023-03-20T10:21:49.533Z,8.52
2023-03-20T10:24:23.401Z,11.35
2023-03-20T10:26:54.437Z,10.88
2023-03-20T10:29:33.298Z,14.45
2023-03-20T10:32:10.027Z,9.95
2023-03-20T10:34:54.447Z,10.90
2023-03-20T10:37:41.449Z,8.50
2023-03-20T10:40:24.766Z,9.00
2023-03-20T10:42:55.117Z,10.45
2023-03-20T10:45:32.731Z,9.02
2023-03-20T10:48:06.070Z,9.75
2023-03-20T10:50:42.531Z,13.18
2023-03-20T10:53:22.456Z,10.70
2023-03-20T10:55:51.343Z,11.88
2023-03-20T10:58:23.672Z,9.45
2023-03-20T11:00:59.371Z,11.63
2023-03-20T11:03:31.812Z,8.82
2023-03-20T11:06:09.619Z,7.57
2023-03-20T11:08:41.358Z,11.65
2023-03-20T11:11:10.449Z,8.45
2023-03-20T11:13:40.388Z,9.88
2023-03-20T11:16:19.435Z,9.43
2023-03-20T11:18:49.225Z,9.98
2023-03-20T11:21:22.798Z,10.50
2023-03-20T11:23:51.450Z,8.73
2023-03-20T11:26:20.932Z,13.90
2023-03-20T11:28:51.866Z,8.80
2023-03-20T11:31:26.029Z,10.82
2023-03-20T11:34:01.859Z,8.07
2023-03-20T11:36:33.231Z,8.45
2023-03-20T11:39:07.615Z,7.63
2023-03-20T11:41:35.617Z,9.82
2023-03-20T11:44:03.556Z,8.38
2023-03-20T11:46:31.990Z,8.10
2023-03-20T11:49:06.612Z,7.63
2023-03-20T11:51:38.169Z,8.30
2023-03-20T11:54:09.117Z,7.55
2023-03-20T11:56:37.765Z,10.98
2023-03-20T11:59:14.279Z,9.43
2023-03-20T12:01:48.907Z,6.88
2023-03-20T12:04:18.810Z,9.75
2023-03-20T12:06:54.363Z,8.07
2023-03-20T12:09:32.832Z,5.78
2023-03-20T12:12:03.682Z,7.97
2023-03-20T12:14:38.926Z,7.90
2023-03-20T12:17:33.746Z,6.85
2023-03-20T12:20:06.701Z,6.07
2023-03-20T12:22:43.182Z,6.05
2023-03-20T12:25:21.273Z,7.45
2023-03-20T12:27:54.127Z,5.70
2023-03-20T12:30:32.512Z,5.50
2023-03-20T12:33:05.567Z,4.95
2023-03-20T12:35:37.742Z,4.80
2023-03-20T12:38:19.760Z,5.95
2023-03-20T12:40:52.498Z,5.25
2023-03-20T12:43:26.667Z,5.63
2023-03-20T12:46:01.592Z,3.25
2023-03-20T12:48:50.775Z,4.00
2023-03-20T12:51:27.035Z,4.75
2023-03-20T12:54:09.051Z,3.25
2023-03-20T12:56:59.814Z,2.95
2023-03-20T12:59:34.677Z,2.65
2023-03-20T13:02:16.546Z,4.05
2023-03-20T13:04:57.693Z,3.03
2023-03-20T13:07:59.812Z,3.45
2023-03-20T13:10:36.283Z,3.15
2023-03-20T13:13:16.069Z,3.47
2023-03-20T13:16:05.146Z,2.85
2023-03-20T13:18:47.121Z,2.65
2023-03-20T13:21:21.007Z,2.28
2023-03-20T13:23:57.826Z,3.25
2023-03-20T13:26:37.663Z,4.70
2023-03-20T13:29:12.877Z,2.92
2023-03-20T13:31:51.540Z,2.58
2023-03-20T13:34:31.675Z,6.18
2023-03-20T13:37:23.452Z,4.70
2023-03-20T13:40:01.980Z,3.00
2023-03-20T13:42:37.989Z,3.20
2023-03-20T13:45:13.421Z,2.70
2023-03-20T13:47:41.534Z,3.08
2023-03-20T13:50:25.249Z,2.80
2023-03-20T13:53:00.817Z,2.63
2023-03-20T13:55:37.785Z,3.38
2023-03-20T13:58:29.696Z,4.72
2023-03-20T14:01:06.011Z,4.72
2023-03-20T14:03:37.613Z,4.32
2023-03-20T14:06:19.046Z,2.70
2023-03-20T14:08:49.979Z,2.92
2023-03-20T14:11:36.040Z,2.83
2023-03-20T14:14:11.586Z,4.32
2023-03-20T14:16:39.674Z,2.80
2023-03-20T14:19:15.313Z,4.40
2023-03-20T14:21:47.469Z,3.05
2023-03-20T14:24:19.649Z,2.92
2023-03-20T14:26:51.389Z,2.92
2023-03-20T14:29:34.624Z,2.95
2023-03-20T14:32:22.143Z,3.15
2023-03-20T14:34:52.040Z,3.22
2023-03-20T14:37:31.815Z,2.42
2023-03-20T14:40:05.260Z,2.92
2023-03-20T14:42:42.078Z,2.80
2023-03-20T14:45:29.277Z,3.83
2023-03-20T14:48:02.485Z,4.00
2023-03-20T14:50:35.557Z,2.90
2023-03-20T14:53:17.575Z,3.00
2023-03-20T14:55:53.975Z,3.28
2023-03-20T14:58:53.429Z,2.72
2023-03-20T15:01:44.545Z,2.38
2023-03-20T15:04:26.495Z,2.63
2023-03-20T15:06:58.956Z,2.00
2023-03-20T15:09:29.350Z,4.72
2023-03-20T15:12:04.100Z,2.85
2023-03-20T15:14:39.356Z,2.50
2023-03-20T15:17:19.500Z,2.50
2023-03-20T15:19:50.719Z,3.33
2023-03-20T15:22:21.779Z,2.30
2023-03-20T15:24:53.773Z,3.10
2023-03-20T15:27:22.630Z,3.35
2023-03-20T15:29:53.396Z,4.18
2023-03-20T15:32:23.824Z,3.30
2023-03-20T15:34:52.348Z,4.07
2023-03-20T15:37:24.586Z,3.15
2023-03-20T15:39:59.177Z,2.92
2023-03-20T15:42:28.177Z,2.83
2023-03-20T15:44:56.940Z,2.60
2023-03-20T15:47:27.064Z,3.03
2023-03-20T15:49:57.410Z,4.35
2023-03-20T15:52:32.857Z,4.78
2023-03-20T15:55:04.042Z,3.75
2023-03-20T15:57:36.087Z,4.78
2023-03-20T16:00:06.652Z,6.05
2023-03-20T16:02:37.177Z,6.03
2023-03-20T16:05:06.299Z,6.50
2023-03-20T16:07:34.717Z,6.75
2023-03-20T16:10:02.755Z,7.55
2023-03-20T16:12:30.804Z,9.20
2023-03-20T16:15:00.629Z,6.80
2023-03-20T16:17:29.028Z,7.72
2023-03-20T16:19:58.396Z,5.80
2023-03-20T16:22:29.186Z,11.43
2023-03-20T16:25:01.167Z,8.57
2023-03-20T16:27:31.583Z,10.60
2023-03-20T16:29:59.908Z,13.05
2023-03-20T16:32:37.015Z,13.52
2023-03-20T16:35:16.887Z,13.63
2023-03-20T16:37:49.631Z,9.38
2023-03-20T16:40:25.226Z,15.75
2023-03-20T16:42:54.914Z,12.77
2023-03-20T16:45:30.531Z,11.43
2023-03-20T16:48:25.770Z,12.48
2023-03-20T16:51:02.268Z,8.23
2023-03-20T16:53:38.079Z,8.07
2023-03-20T16:56:11.550Z,9.32
2023-03-20T16:58:41.240Z,12.52
2023-03-20T17:01:15.870Z,10.10
2023-03-20T17:03:51.107Z,13.05
2023-03-20T17:06:44.615Z,9.57
2023-03-20T17:09:27.609Z,8.50
2023-03-20T17:12:02.241Z,8.48
2023-03-20T17:14:30.903Z,6.93
2023-03-20T17:17:00.329Z,9.48
2023-03-20T17:19:28.457Z,10.85
2023-03-20T17:22:03.556Z,11.27
2023-03-20T17:24:31.690Z,12.35
2023-03-20T17:26:59.721Z,11.15
2023-03-20T17:29:27.764Z,12.38
2023-03-20T17:31:55.905Z,9.60
2023-03-20T17:34:24.020Z,9.25
2023-03-20T17:36:52.102Z,12.82
2023-03-20T17:39:22.573Z,12.13
2023-03-20T17:41:50.743Z,9.00
2023-03-20T17:44:18.660Z,11.98
2023-03-20T17:46:58.695Z,12.75
2023-03-20T17:49:28.280Z,16.88
2023-03-20T17:51:56.868Z,17.30
2023-03-20T17:54:26.800Z,17.58
2023-03-20T17:56:54.804Z,13.93
2023-03-20T17:59:24.994Z,14.25
2023-03-20T18:01:53.474Z,13.20
2023-03-20T18:04:25.513Z,10.75
2023-03-20T18:06:53.759Z,8.20
2023-03-20T18:09:21.869Z,10.27
2023-03-20T18:11:51.156Z,14.02
2023-03-20T18:14:19.412Z,20.98
2023-03-20T18:16:47.304Z,34.55
2023-03-20T18:19:24.419Z,22.15
2023-03-20T18:21:52.618Z,21.08
2023-03-20T18:24:20.692Z,18.02
2023-03-20T18:26:48.972Z,17.08
2023-03-20T18:29:18.778Z,17.70
2023-03-20T18:31:49.025Z,12.50
2023-03-20T18:34:17.721Z,15.65
2023-03-20T18:36:46.816Z,15.43
2023-03-20T18:39:18.721Z,15.35
2023-03-20T18:41:46.813Z,13.02
2023-03-20T18:44:15.002Z,20.55
2023-03-20T18:46:46.967Z,16.63
2023-03-20T18:49:16.793Z,13.82
2023-03-20T18:51:47.412Z,14.55
2023-03-20T18:54:15.459Z,11.43
2023-03-20T18:56:43.382Z,12.55
2023-03-20T18:59:13.950Z,17.05
2023-03-20T19:01:42.215Z,13.05
2023-03-20T19:04:11.808Z,13.25
2023-03-20T19:06:39.876Z,16.42
2023-03-20T19:09:10.932Z,14.00
2023-03-20T19:11:39.112Z,11.13
2023-03-20T19:14:07.044Z,11.48
2023-03-20T19:16:38.011Z,10.73
2023-03-20T19:19:08.169Z,15.13
2023-03-20T19:21:37.544Z,14.32
2023-03-20T19:24:07.760Z,13.93
2023-03-20T19:26:37.529Z,11.18
2023-03-20T19:29:09.181Z,11.60
2023-03-20T19:31:37.564Z,8.93
2023-03-20T19:34:06.812Z,7.80
2023-03-20T19:36:38.174Z,13.77
2023-03-20T19:39:09.233Z,12.38
2023-03-20T19:41:37.985Z,12.10
2023-03-20T19:44:07.011Z,19.13
2023-03-20T19:46:40.352Z,15.10
2023-03-20T19:49:19.069Z,16.92
2023-03-20T19:51:49.654Z,14.02
2023-03-20T19:54:17.961Z,12.95
2023-03-20T19:56:46.033Z,13.52
2023-03-20T19:59:16.559Z,12.45
2023-03-20T20:01:45.609Z,12.90
2023-03-20T20:04:13.666Z,17.33
2023-03-20T20:06:42.005Z,11.82
2023-03-20T20:09:11.666Z,10.88
2023-03-20T20:11:39.647Z,11.38
2023-03-20T20:14:13.667Z,13.38
2023-03-20T20:16:45.604Z,11.40
2023-03-20T20:19:18.688Z,11.63
2023-03-20T20:24:37.674Z,9.35
2023-03-20T20:27:16.865Z,14.35
2023-03-20T20:29:51.861Z,7.05
2023-03-20T20:32:23.138Z,13.60
2023-03-20T20:38:28.182Z,10.55
2023-03-20T20:40:31.951Z,13.02
2023-03-20T20:43:02.467Z,8.70
2023-03-20T20:45:32.323Z,12.32
2023-03-20T20:48:01.203Z,10.30
2023-03-20T20:50:30.970Z,8.27
2023-03-20T20:52:59.244Z,8.63
2023-03-20T20:55:27.543Z,8.32
2023-03-20T20:57:57.261Z,10.38
2023-03-20T21:00:37.510Z,13.13
2023-03-20T21:03:09.559Z,10.63
2023-03-20T21:05:41.372Z,12.23
2023-03-20T21:08:09.473Z,10.50
2023-03-20T21:10:37.519Z,13.23
2023-03-20T21:13:08.333Z,13.85
2023-03-20T21:15:39.642Z,11.20
2023-03-20T21:18:07.979Z,10.93
2023-03-20T21:20:36.159Z,16.10
2023-03-20T21:23:04.334Z,15.93
2023-03-20T21:25:40.133Z,15.25
2023-03-20T21:28:11.585Z,12.00
2023-03-20T21:30:51.103Z,9.30
2023-03-20T21:33:30.402Z,10.40
2023-03-20T21:35:58.520Z,11.00
2023-03-20T21:41:15.177Z,13.27
2023-03-20T21:43:47.159Z,10.80
2023-03-20T21:52:48.810Z,8.23
2023-03-20T21:55:15.050Z,9.82
2023-03-20T22:03:10.831Z,12.90
2023-03-20T22:06:45.747Z,7.70
2023-03-20T22:37:28.368Z,4.93
2023-03-20T22:45:03.271Z,4.70
2023-03-20T22:47:32.438Z,5.57
2023-03-20T22:50:01.973Z,6.30
2023-03-20T22:52:45.468Z,4.93
2023-03-20T22:55:16.205Z,4.90
2023-03-20T22:57:56.024Z,5.22
2023-03-20T23:00:28.270Z,5.88
2023-03-20T23:03:06.767Z,6.28
2023-03-20T23:05:43.602Z,4.32
2023-03-20T23:08:13.054Z,5.15
2023-03-20T23:10:44.951Z,20.65
2023-03-20T23:13:13.973Z,6.63
2023-03-20T23:15:41.994Z,6.47
2023-03-20T23:18:11.035Z,9.38
2023-03-20T23:20:39.198Z,9.57
2023-03-20T23:23:08.686Z,8.23
2023-03-20T23:25:39.558Z,9.43
2023-03-20T23:28:09.383Z,13.98
2023-03-20T23:30:46.522Z,12.55
2023-03-20T23:33:17.675Z,9.80
2023-03-20T23:35:46.445Z,9.23
2023-03-20T23:38:15.814Z,9.50
2023-03-20T23:40:50.186Z,8.15
2023-03-20T23:43:18.498Z,7.72
2023-03-20T23:45:46.921Z,7.65
2023-03-20T23:48:15.061Z,10.90
2023-03-20T23:50:52.559Z,7.10
2023-03-20T23:53:23.466Z,10.75
2023-03-20T23:55:53.916Z,8.60
2023-03-20T23:58:23.549Z,8.95
